Terminal Aerodrome Forecast
Issued by NWS

Home | Current Version | Previous Version | Text Only | Print | Product List | Glossary On
Versions: 1 2 3 4 5 6 7 8 9 10 11 12 13
000
FTUS44 KLZK 311100
TAFPBF
TAF
KPBF 311140Z 3112/0112 03003KT P6SM -RA SCT040 OVC070
      TEMPO 3112/3116 2SM -RA BR OVC040
     FM311600 11007KT 6SM -RA BR OVC025
     FM311700 12007KT P6SM -RA SCT025 OVC040
      TEMPO 0108/0112 3SM BR OVC025=

USA.gov is the U.S. government's official web portal to all federal, state and local government web resources and services.